createdAt,value
2023-04-01T00:00:52.996Z,9.50
2023-04-01T00:03:21.658Z,9.45
2023-04-01T00:05:51.360Z,9.42
2023-04-01T00:08:19.832Z,9.40
2023-04-01T00:10:47.885Z,9.41
2023-04-01T00:13:16.450Z,9.39
2023-04-01T00:15:45.101Z,9.32
2023-04-01T00:18:13.793Z,9.29
2023-04-01T00:20:45.348Z,9.26
2023-04-01T00:23:15.507Z,9.19
2023-04-01T00:25:43.914Z,9.13
2023-04-01T00:28:11.983Z,9.03
2023-04-01T00:30:40.220Z,8.96
2023-04-01T00:33:08.482Z,8.91
2023-04-01T00:35:36.758Z,8.87
2023-04-01T00:38:04.904Z,8.86
2023-04-01T00:40:36.200Z,8.80
2023-04-01T00:43:04.619Z,8.78
2023-04-01T00:45:36.141Z,8.73
2023-04-01T00:48:08.039Z,8.67
2023-04-01T00:50:36.851Z,8.66
2023-04-01T00:53:05.468Z,8.65
2023-04-01T00:55:37.710Z,8.65
2023-04-01T00:58:08.910Z,8.66
2023-04-01T01:00:38.138Z,8.64
2023-04-01T01:03:06.284Z,8.64
2023-04-01T01:05:49.564Z,8.67
2023-04-01T01:08:25.130Z,8.65
2023-04-01T01:10:54.588Z,8.61
2023-04-01T01:13:27.748Z,8.55
2023-04-01T01:15:59.961Z,8.49
2023-04-01T01:18:34.929Z,8.42
2023-04-01T01:21:38.828Z,8.32
2023-04-01T01:24:45.204Z,8.25
2023-04-01T01:27:18.077Z,8.21
2023-04-01T01:30:24.655Z,8.17
2023-04-01T01:33:03.641Z,8.14
2023-04-01T01:35:36.514Z,8.10
2023-04-01T01:38:06.683Z,8.09
2023-04-01T01:40:36.662Z,8.09
2023-04-01T01:43:08.254Z,8.04
2023-04-01T01:45:37.796Z,7.98
2023-04-01T01:48:07.279Z,7.97
2023-04-01T01:50:37.433Z,7.93
2023-04-01T01:53:07.052Z,7.89
2023-04-01T01:55:37.228Z,7.83
2023-04-01T01:58:09.140Z,7.75
2023-04-01T02:00:37.430Z,7.66
2023-04-01T02:03:06.601Z,7.62
2023-04-01T02:05:36.662Z,7.60
2023-04-01T02:08:08.125Z,7.63
2023-04-01T02:10:39.395Z,7.61
2023-04-01T02:13:12.523Z,7.56
2023-04-01T02:15:45.264Z,7.53
2023-04-01T02:18:13.984Z,7.50
2023-04-01T02:20:43.990Z,7.43
2023-04-01T02:23:12.678Z,7.37
2023-04-01T02:25:42.541Z,7.33
2023-04-01T02:28:11.972Z,7.30
2023-04-01T02:30:41.741Z,7.26
2023-04-01T02:33:10.035Z,7.20
2023-04-01T02:35:38.650Z,7.11
2023-04-01T02:38:08.401Z,7.05
2023-04-01T02:40:47.691Z,7.00
2023-04-01T02:43:16.095Z,6.99
2023-04-01T02:45:44.245Z,7.00
2023-04-01T02:48:13.712Z,6.97
2023-04-01T02:50:42.193Z,6.90
2023-04-01T02:53:12.338Z,6.82
2023-04-01T02:55:40.708Z,6.79
2023-04-01T02:58:08.980Z,6.73
2023-04-01T03:00:37.178Z,6.66
2023-04-01T03:03:05.811Z,6.64
2023-04-01T03:05:34.168Z,6.58
2023-04-01T03:08:02.388Z,6.51
2023-04-01T03:10:31.794Z,6.49
2023-04-01T03:12:59.874Z,6.48
2023-04-01T03:15:27.963Z,6.46
2023-04-01T03:17:56.095Z,6.43
2023-04-01T03:20:24.519Z,6.41
2023-04-01T03:22:52.738Z,6.39
2023-04-01T03:25:20.939Z,6.35
2023-04-01T03:27:50.440Z,6.33
2023-04-01T03:30:18.657Z,6.31
2023-04-01T03:32:47.028Z,6.34
2023-04-01T03:35:15.154Z,6.32
2023-04-01T03:37:43.217Z,6.30
2023-04-01T03:40:12.437Z,6.27
2023-04-01T03:42:40.599Z,6.23
2023-04-01T03:45:11.184Z,6.17
2023-04-01T03:47:39.643Z,6.11
2023-04-01T03:50:09.327Z,6.14
2023-04-01T03:52:37.612Z,6.13
2023-04-01T03:55:07.031Z,6.10
2023-04-01T03:57:35.153Z,6.08
2023-04-01T04:00:03.231Z,6.11
2023-04-01T04:02:32.793Z,6.09
2023-04-01T04:05:00.949Z,6.05
2023-04-01T04:07:28.998Z,6.03
2023-04-01T04:09:57.094Z,5.97
2023-04-01T04:12:25.187Z,5.95
2023-04-01T04:14:53.262Z,5.93
2023-04-01T04:17:21.303Z,5.88
2023-04-01T04:19:50.850Z,5.91
2023-04-01T04:22:18.912Z,5.88
2023-04-01T04:24:46.964Z,5.88
2023-04-01T04:27:15.034Z,5.84
2023-04-01T04:29:43.240Z,5.83
2023-04-01T04:32:11.279Z,5.82
2023-04-01T04:34:39.808Z,5.83
2023-04-01T04:37:09.259Z,5.81
2023-04-01T04:39:37.325Z,5.83
2023-04-01T04:42:05.765Z,5.82
2023-04-01T04:44:33.805Z,5.81
2023-04-01T04:47:01.905Z,5.81
2023-04-01T04:49:29.998Z,5.76
2023-04-01T04:51:58.049Z,5.71
2023-04-01T04:54:27.509Z,5.70
2023-04-01T04:56:56.029Z,5.68
2023-04-01T04:59:24.211Z,5.69
2023-04-01T05:01:52.299Z,5.68
2023-04-01T05:04:20.393Z,5.64
2023-04-01T05:06:48.447Z,5.59
2023-04-01T05:09:16.966Z,5.63
2023-04-01T05:11:46.386Z,5.64
2023-04-01T05:14:15.645Z,5.64
2023-04-01T05:16:43.765Z,5.63
2023-04-01T05:19:11.924Z,5.63
2023-04-01T05:21:39.974Z,5.65
2023-04-01T05:24:10.759Z,5.63
2023-04-01T05:26:39.031Z,5.63
2023-04-01T05:29:08.537Z,5.62
2023-04-01T05:31:36.607Z,5.65
2023-04-01T05:34:04.734Z,5.68
2023-04-01T05:36:32.793Z,5.68
2023-04-01T05:39:00.866Z,5.65
2023-04-01T05:41:28.968Z,5.67
2023-04-01T05:43:57.368Z,5.66
2023-04-01T05:46:26.846Z,5.66
2023-04-01T05:48:55.013Z,5.65
2023-04-01T05:51:23.331Z,5.59
2023-04-01T05:53:51.722Z,5.57
2023-04-01T05:56:19.842Z,5.53
2023-04-01T05:58:52.561Z,5.53
2023-04-01T06:01:21.060Z,5.54
2023-04-01T06:03:50.802Z,5.54
2023-04-01T06:06:25.327Z,5.53
2023-04-01T06:08:54.043Z,5.51
2023-04-01T06:11:31.644Z,5.49
2023-04-01T06:14:17.876Z,5.49
2023-04-01T06:17:00.399Z,5.47
2023-04-01T06:19:37.504Z,5.47
2023-04-01T06:22:24.347Z,5.49
2023-04-01T06:25:04.882Z,5.53
2023-04-01T06:27:49.340Z,5.51
2023-04-01T06:30:44.432Z,5.55
2023-04-01T06:33:44.476Z,5.58
2023-04-01T06:36:41.275Z,5.60
2023-04-01T06:39:44.201Z,5.57
2023-04-01T06:42:36.358Z,5.59
2023-04-01T06:45:17.223Z,5.59
2023-04-01T06:47:56.391Z,5.57
2023-04-01T06:50:28.716Z,5.57
2023-04-01T06:53:06.904Z,5.61
2023-04-01T06:55:41.520Z,5.58
2023-04-01T06:58:15.778Z,5.59
2023-04-01T07:00:46.774Z,5.59
2023-04-01T07:03:22.354Z,5.59
2023-04-01T07:05:51.512Z,5.61
2023-04-01T07:08:25.522Z,5.61
2023-04-01T07:10:57.888Z,5.58
2023-04-01T07:13:28.589Z,5.57
2023-04-01T07:16:05.041Z,5.54
2023-04-01T07:18:39.284Z,5.56
2023-04-01T07:21:13.302Z,5.55
2023-04-01T07:23:46.736Z,5.60
2023-04-01T07:26:21.755Z,5.65
2023-04-01T07:28:50.432Z,5.67
2023-04-01T07:31:28.824Z,5.70
2023-04-01T07:34:06.163Z,5.70
2023-04-01T07:36:40.996Z,5.72
2023-04-01T07:39:20.869Z,5.69
2023-04-01T07:41:56.615Z,5.71
2023-04-01T07:44:30.807Z,5.74
2023-04-01T07:47:08.178Z,5.76
2023-04-01T07:49:44.940Z,5.74
2023-04-01T07:52:17.829Z,5.73
2023-04-01T07:54:50.999Z,5.77
2023-04-01T07:57:22.165Z,5.80
2023-04-01T07:59:58.922Z,5.84
2023-04-01T08:02:36.852Z,5.85
2023-04-01T08:05:15.323Z,5.83
2023-04-01T08:07:47.701Z,5.84
2023-04-01T08:10:22.674Z,5.81
2023-04-01T08:12:58.489Z,5.74
2023-04-01T08:15:29.948Z,5.77
2023-04-01T08:18:08.242Z,5.76
2023-04-01T08:20:40.538Z,5.76
2023-04-01T08:23:14.651Z,5.76
2023-04-01T08:25:48.288Z,5.76
2023-04-01T08:28:22.732Z,5.74
2023-04-01T08:30:54.398Z,5.75
2023-04-01T08:33:26.308Z,5.73
2023-04-01T08:35:58.574Z,5.70
2023-04-01T08:38:32.290Z,5.74
2023-04-01T08:41:03.734Z,5.70
2023-04-01T08:43:45.740Z,5.69
2023-04-01T08:46:41.166Z,5.72
2023-04-01T08:49:19.901Z,5.76
2023-04-01T08:52:20.868Z,5.84
2023-04-01T08:55:03.957Z,5.93
2023-04-01T08:57:44.658Z,5.92
2023-04-01T09:00:29.410Z,5.94
2023-04-01T09:03:21.741Z,5.96
2023-04-01T09:06:19.251Z,5.98
2023-04-01T09:09:02.342Z,5.94
2023-04-01T09:11:35.686Z,5.93
2023-04-01T09:14:25.656Z,5.97
2023-04-01T09:17:04.689Z,5.94
2023-04-01T09:19:46.056Z,5.92
2023-04-01T09:22:43.236Z,5.82
2023-04-01T09:25:40.832Z,5.82
2023-04-01T09:28:13.616Z,5.77
2023-04-01T09:31:13.543Z,5.73
2023-04-01T09:34:16.078Z,5.71
2023-04-01T09:36:48.645Z,5.62
2023-04-01T09:39:34.221Z,5.54
2023-04-01T09:42:28.890Z,5.53
2023-04-01T09:45:00.789Z,5.50
2023-04-01T09:47:53.083Z,5.44
2023-04-01T09:50:35.177Z,5.42
2023-04-01T09:53:12.048Z,5.41
2023-04-01T09:56:10.611Z,5.39
2023-04-01T09:59:24.377Z,5.34
2023-04-01T10:02:39.036Z,5.32
2023-04-01T10:05:32.789Z,5.35
2023-04-01T10:08:36.080Z,5.30
2023-04-01T10:11:31.992Z,5.27
2023-04-01T10:14:38.620Z,5.31
2023-04-01T10:17:49.945Z,5.30
2023-04-01T10:20:48.546Z,5.23
2023-04-01T10:23:24.874Z,5.23
2023-04-01T10:26:19.798Z,5.24
2023-04-01T10:29:14.538Z,5.20
2023-04-01T10:32:32.662Z,5.17
2023-04-01T10:35:43.148Z,5.11
2023-04-01T10:38:43.850Z,5.04
2023-04-01T10:41:29.607Z,5.00
2023-04-01T10:44:27.517Z,4.98
2023-04-01T10:47:10.401Z,4.98
2023-04-01T10:50:14.247Z,4.92
2023-04-01T10:53:31.255Z,4.81
2023-04-01T10:56:31.745Z,4.75
2023-04-01T10:59:36.336Z,4.70
2023-04-01T11:02:55.662Z,4.77
2023-04-01T11:06:15.950Z,4.79
2023-04-01T11:09:18.984Z,4.73
2023-04-01T11:12:16.182Z,4.70
2023-04-01T11:15:19.662Z,4.73
2023-04-01T11:18:35.722Z,4.76
2023-04-01T11:21:31.176Z,4.78
2023-04-01T11:24:11.118Z,4.81
2023-04-01T11:26:48.062Z,4.85
2023-04-01T11:29:56.585Z,4.80
2023-04-01T11:32:41.347Z,4.79
2023-04-01T11:35:40.985Z,4.77
2023-04-01T11:38:37.644Z,4.72
2023-04-01T11:41:27.819Z,4.67
2023-04-01T11:44:06.991Z,4.64
2023-04-01T11:46:44.914Z,4.64
2023-04-01T11:49:26.249Z,4.70
2023-04-01T11:52:07.245Z,4.81
2023-04-01T11:54:59.150Z,4.93
2023-04-01T11:57:43.356Z,4.96
2023-04-01T12:00:34.088Z,5.00
2023-04-01T12:05:26.585Z,5.01
2023-04-01T12:08:10.305Z,5.00
2023-04-01T12:10:42.179Z,5.00
2023-04-01T12:13:21.456Z,5.03
2023-04-01T12:16:15.799Z,5.07
2023-04-01T12:18:48.545Z,5.08
2023-04-01T12:21:24.740Z,5.09
2023-04-01T12:24:28.869Z,5.08
2023-04-01T12:27:08.424Z,5.08
2023-04-01T12:29:58.478Z,5.12
2023-04-01T12:32:34.162Z,5.11
2023-04-01T12:35:16.320Z,5.11
2023-04-01T12:37:52.804Z,5.15
2023-04-01T12:40:34.134Z,5.22
2023-04-01T12:43:21.151Z,5.26
2023-04-01T12:45:56.452Z,5.26
2023-04-01T12:48:41.601Z,5.25
2023-04-01T12:51:47.522Z,5.20
2023-04-01T12:54:46.083Z,5.17
2023-04-01T12:57:31.471Z,5.14
2023-04-01T13:00:23.066Z,5.12
2023-04-01T13:03:02.027Z,5.13
2023-04-01T13:05:51.721Z,5.12
2023-04-01T13:08:39.014Z,5.17
2023-04-01T13:11:21.597Z,5.18
2023-04-01T13:14:30.753Z,5.15
2023-04-01T13:17:01.614Z,5.11
2023-04-01T13:19:33.740Z,5.14
2023-04-01T13:22:08.431Z,5.19
2023-04-01T13:24:43.793Z,5.26
2023-04-01T13:27:18.446Z,5.35
2023-04-01T13:30:02.502Z,5.42
2023-04-01T13:35:23.187Z,5.34
2023-04-01T13:38:00.522Z,5.22
2023-04-01T13:40:49.365Z,5.16
2023-04-01T13:43:30.854Z,5.13
2023-04-01T13:46:28.211Z,5.14
2023-04-01T13:49:14.943Z,5.13
2023-04-01T13:52:03.271Z,5.11
2023-04-01T13:54:45.811Z,5.09
2023-04-01T13:57:24.913Z,5.07
2023-04-01T14:00:19.215Z,5.05
2023-04-01T14:02:57.970Z,4.96
2023-04-01T14:05:43.250Z,4.92
2023-04-01T14:08:22.255Z,4.83
2023-04-01T14:10:57.591Z,4.84
2023-04-01T14:13:30.395Z,4.79
2023-04-01T14:16:10.436Z,4.72
2023-04-01T14:19:20.490Z,4.75
2023-04-01T14:21:55.009Z,4.78
2023-04-01T14:24:38.132Z,4.80
2023-04-01T14:27:36.796Z,4.76
2023-04-01T14:30:22.555Z,4.78
2023-04-01T14:32:58.751Z,4.77
2023-04-01T14:35:36.364Z,4.79
2023-04-01T14:38:26.216Z,4.81
2023-04-01T14:40:58.665Z,4.82
2023-04-01T14:43:43.229Z,4.80
2023-04-01T14:46:19.340Z,4.82
2023-04-01T14:48:58.125Z,4.86
2023-04-01T14:51:33.270Z,4.79
2023-04-01T14:54:06.574Z,4.77
2023-04-01T14:56:42.844Z,4.78
2023-04-01T14:59:15.583Z,4.77
2023-04-01T15:01:49.462Z,4.80
2023-04-01T15:04:39.574Z,4.82
2023-04-01T15:07:26.343Z,4.86
2023-04-01T15:10:01.020Z,4.80
2023-04-01T15:12:32.767Z,4.72
2023-04-01T15:15:19.063Z,4.69
2023-04-01T15:17:57.197Z,4.69
2023-04-01T15:20:36.468Z,4.64
2023-04-01T15:23:13.871Z,4.58
2023-04-01T15:25:51.819Z,4.57
2023-04-01T15:28:31.947Z,4.54
2023-04-01T15:31:04.996Z,4.61
2023-04-01T15:33:51.383Z,4.63
2023-04-01T15:36:31.815Z,4.67
2023-04-01T15:39:11.348Z,4.66
2023-04-01T15:41:46.949Z,4.64
2023-04-01T15:44:36.777Z,4.72
2023-04-01T15:47:11.477Z,4.74
2023-04-01T15:49:44.037Z,4.77
2023-04-01T15:52:21.415Z,4.74
2023-04-01T15:55:02.001Z,4.72
2023-04-01T15:57:35.157Z,4.78
2023-04-01T16:00:21.804Z,4.80
2023-04-01T16:02:52.174Z,4.78
2023-04-01T16:05:31.224Z,4.79
2023-04-01T16:08:29.985Z,4.82
2023-04-01T16:11:09.679Z,4.80
2023-04-01T16:13:51.117Z,4.87
2023-04-01T16:16:29.616Z,4.88
2023-04-01T16:19:09.592Z,4.92
2023-04-01T16:21:43.027Z,4.92
2023-04-01T16:24:25.213Z,4.89
2023-04-01T16:26:56.977Z,4.85
2023-04-01T16:29:35.164Z,4.82
2023-04-01T16:32:17.543Z,4.79
2023-04-01T16:34:50.685Z,4.81
2023-04-01T16:37:22.881Z,4.73
2023-04-01T16:40:03.295Z,4.72
2023-04-01T16:42:41.208Z,4.71
2023-04-01T16:45:21.313Z,4.67
2023-04-01T16:47:52.175Z,4.63
2023-04-01T16:50:24.315Z,4.57
2023-04-01T16:53:04.453Z,4.49
2023-04-01T16:55:48.017Z,4.44
2023-04-01T16:58:21.025Z,4.39
2023-04-01T17:00:52.881Z,4.40
2023-04-01T17:03:28.090Z,4.43
2023-04-01T17:06:20.540Z,4.46
2023-04-01T17:09:01.865Z,4.51
2023-04-01T17:11:36.476Z,4.55
2023-04-01T17:14:15.685Z,4.54
2023-04-01T17:16:57.758Z,4.54
2023-04-01T17:19:41.481Z,4.52
2023-04-01T17:22:18.331Z,4.46
2023-04-01T17:24:59.544Z,4.44
2023-04-01T17:27:36.893Z,4.41
2023-04-01T17:30:22.620Z,4.34
2023-04-01T17:33:04.684Z,4.27
2023-04-01T17:35:35.090Z,4.18
2023-04-01T17:38:15.333Z,4.11
2023-04-01T17:40:53.658Z,4.06
2023-04-01T17:43:28.836Z,4.04
2023-04-01T17:45:58.602Z,4.00
2023-04-01T17:48:40.465Z,3.93
2023-04-01T17:51:24.179Z,3.92
2023-04-01T17:53:59.285Z,3.86
2023-04-01T17:56:38.900Z,3.80
2023-04-01T17:59:15.494Z,3.74
2023-04-01T18:01:51.967Z,3.71
2023-04-01T18:04:34.139Z,3.68
2023-04-01T18:07:20.379Z,3.62
2023-04-01T18:09:58.188Z,3.55
2023-04-01T18:12:33.601Z,3.50
2023-04-01T18:15:12.985Z,3.50
2023-04-01T18:17:48.027Z,3.47
2023-04-01T18:20:28.088Z,3.47
2023-04-01T18:22:58.877Z,3.47
2023-04-01T18:25:30.810Z,3.45
2023-04-01T18:28:18.721Z,3.44
2023-04-01T18:30:52.745Z,3.41
2023-04-01T18:33:25.310Z,3.42
2023-04-01T18:35:55.342Z,3.43
2023-04-01T18:38:30.776Z,3.39
2023-04-01T18:41:14.178Z,3.38
2023-04-01T18:43:46.022Z,3.36
2023-04-01T18:46:25.565Z,3.33
2023-04-01T18:48:58.485Z,3.32
2023-04-01T18:51:28.756Z,3.33
2023-04-01T18:54:00.517Z,3.30
2023-04-01T18:56:32.216Z,3.27
2023-04-01T18:59:08.410Z,3.20
2023-04-01T19:01:43.173Z,3.19
2023-04-01T19:04:19.020Z,3.18
2023-04-01T19:06:50.412Z,3.19
2023-04-01T19:09:24.947Z,3.15
2023-04-01T19:12:21.828Z,3.18
2023-04-01T19:15:02.021Z,3.18
2023-04-01T19:17:46.437Z,3.18
2023-04-01T19:20:21.535Z,3.18
2023-04-01T19:23:20.225Z,3.17
2023-04-01T19:25:51.161Z,3.17
2023-04-01T19:28:29.585Z,3.18
2023-04-01T19:30:59.923Z,3.15
2023-04-01T19:33:43.497Z,3.13
2023-04-01T19:36:18.550Z,3.14
2023-04-01T19:38:55.057Z,3.11
2023-04-01T19:41:36.100Z,3.06
2023-04-01T19:44:13.796Z,3.04
2023-04-01T19:46:46.514Z,3.02
2023-04-01T19:49:31.802Z,3.01
2023-04-01T19:52:04.500Z,2.99
2023-04-01T19:54:38.466Z,3.01
2023-04-01T19:57:14.664Z,3.01
2023-04-01T19:59:49.053Z,3.00
2023-04-01T20:02:46.683Z,3.01
2023-04-01T20:05:27.875Z,3.01
2023-04-01T20:07:59.543Z,3.02
2023-04-01T20:10:34.129Z,3.03
2023-04-01T20:13:07.613Z,3.01
2023-04-01T20:15:37.527Z,2.99
2023-04-01T20:18:09.487Z,2.99
2023-04-01T20:20:39.568Z,3.00
2023-04-01T20:23:18.917Z,2.99
2023-04-01T20:25:52.134Z,3.02
2023-04-01T20:28:27.525Z,3.04
2023-04-01T20:31:04.155Z,3.03
2023-04-01T20:34:06.167Z,3.01
2023-04-01T20:36:41.310Z,3.01
2023-04-01T20:39:30.282Z,3.01
2023-04-01T20:42:15.256Z,3.03
2023-04-01T20:44:48.313Z,3.04
2023-04-01T20:47:24.648Z,3.04
2023-04-01T20:50:01.445Z,3.03
2023-04-01T20:52:40.690Z,3.03
2023-04-01T20:55:28.748Z,3.01
2023-04-01T20:58:06.604Z,3.03
2023-04-01T21:00:42.023Z,3.05
2023-04-01T21:03:29.929Z,3.06
2023-04-01T21:06:11.876Z,3.08
2023-04-01T21:08:53.665Z,3.09
2023-04-01T21:11:30.630Z,3.09
2023-04-01T21:14:07.529Z,3.08
2023-04-01T21:16:43.441Z,3.08
2023-04-01T21:19:21.109Z,3.07
2023-04-01T21:22:02.497Z,3.09
2023-04-01T21:24:52.963Z,3.08
2023-04-01T21:27:31.144Z,3.06
2023-04-01T21:30:07.570Z,3.06
2023-04-01T21:32:47.510Z,3.06
2023-04-01T21:35:25.841Z,3.07
2023-04-01T21:38:26.052Z,3.04
2023-04-01T21:41:16.025Z,3.04
2023-04-01T21:44:21.089Z,3.04
2023-04-01T21:47:32.036Z,3.01
2023-04-01T21:50:21.233Z,3.02
2023-04-01T21:53:05.451Z,2.99
2023-04-01T21:55:58.302Z,2.99
2023-04-01T21:59:04.109Z,2.98
2023-04-01T22:01:59.110Z,2.97
2023-04-01T22:04:39.921Z,2.94
2023-04-01T22:07:13.943Z,2.92
2023-04-01T22:09:46.579Z,2.93
2023-04-01T22:12:19.279Z,2.94
2023-04-01T22:14:54.149Z,2.94
2023-04-01T22:17:28.106Z,2.95
2023-04-01T22:20:10.367Z,2.95
2023-04-01T22:22:54.559Z,2.96
2023-04-01T22:25:27.287Z,2.97
2023-04-01T22:28:00.141Z,2.96
2023-04-01T22:30:33.826Z,2.97
2023-04-01T22:33:07.733Z,2.97
2023-04-01T22:35:42.190Z,2.99
2023-04-01T22:38:19.979Z,2.99
2023-04-01T22:40:54.934Z,3.02
2023-04-01T22:43:27.877Z,3.01
2023-04-01T22:46:18.857Z,3.03
2023-04-01T22:48:50.535Z,3.03
2023-04-01T22:51:21.783Z,3.03
2023-04-01T22:53:59.698Z,3.02
2023-04-01T22:56:32.234Z,3.02
2023-04-01T22:59:06.938Z,3.01
2023-04-01T23:01:43.930Z,2.99
2023-04-01T23:04:17.639Z,3.02
2023-04-01T23:06:50.647Z,3.00
2023-04-01T23:09:21.823Z,3.04
2023-04-01T23:11:53.892Z,3.04
2023-04-01T23:14:37.984Z,3.04
2023-04-01T23:17:19.719Z,3.04
2023-04-01T23:19:52.416Z,3.03
2023-04-01T23:22:28.984Z,3.02
2023-04-01T23:25:02.863Z,3.04
2023-04-01T23:27:37.157Z,3.04
2023-04-01T23:30:06.410Z,3.06
2023-04-01T23:32:36.205Z,3.06
2023-04-01T23:35:04.558Z,3.07
2023-04-01T23:37:32.796Z,3.07
2023-04-01T23:40:01.999Z,3.07
2023-04-01T23:42:31.704Z,3.08
2023-04-01T23:45:01.202Z,3.08
2023-04-01T23:47:33.489Z,3.09
2023-04-01T23:50:07.130Z,3.09
2023-04-01T23:52:38.838Z,3.10
2023-04-01T23:55:16.233Z,3.10
2023-04-01T23:57:44.403Z,3.08
